NCAR-RAP Real-Time Weather Data

Output produced by METARs form (24 April 2018  16:19 UTC)
found at http://weather.rap.ucar.edu/surface/
 
RJOR 241219Z 27003KT 3000 -SHRA BR FEW004 SCT008 BKN015 17/15 Q1004 RMK 1ST004 3ST008 5CU015 A2966
RJOR 241216Z 28003KT 2000 SHRA BR FEW004 SCT008 BKN015 17/15 Q1004 RMK 1ST004 3ST008 5CU015 A2966
RJOR 241213Z 28004KT 3000 -SHRA BR FEW004 SCT008 BKN015 17/15 Q1004 RMK 1ST004 3ST008 5CU015 A2966
RJOR 241203Z 28004KT 4000 -SHRA BR FEW004 SCT008 BKN015 16/15 Q1004 RMK 1ST004 3ST008 5CU015 A2966
RJOR 241200Z 28003KT 5000 -SHRA BR FEW004 SCT008 BKN015 17/15 Q1004
RJOR 241100Z 25004KT 5000 -SHRA BR FEW006 SCT020 BKN040 17/16 Q1004
RJOR 241040Z 27007KT 5000 -SHRA BR FEW006 SCT020 BKN040 17/15 Q1004 RMK 1ST006 3CU020 5CU040 A2965
RJOR 241035Z 27008KT 4000 -SHRA BR FEW006 SCT015 BKN030 17/15 Q1003 RMK 1ST006 3CU015 5CU030 A2964
RJOR 241030Z 27008KT 3000 SHRA BR FEW006 SCT012 BKN025 17/15 Q1003 RMK 1ST006 3CU012 5CU025 A2964
RJOR 241022Z 27008KT 4000 SHRA FEW006 SCT015 BKN030 17/15 Q1003 RMK 1ST006 3CU015 5CU030 A2964
RJOR 241000Z 25005KT 9999 -SHRA FEW006 SCT020 BKN040 17/15 Q1003
RJOR 240900Z 22004KT 180V260 9999 -SHRA FEW006 SCT020 BKN040 19/15 Q1002
RJOR 240800Z 17011KT 9999 -SHRA FEW008 SCT020 BKN040 19/15 Q1003
RJOR 240700Z 15013KT 9999 -SHRA FEW009 SCT025 BKN040 19/15 Q1002
RJOR 240600Z 16017KT 9999 -SHRA FEW015 SCT030 BKN045 19/14 Q1003
RJOR 240500Z 14012G24KT 9999 -SHRA FEW010 SCT030 BKN045 18/14 Q1004
RJOR 240400Z 14013KT 9999 -RA FEW020 SCT045 OVC080 19/14 Q1005
RJOR 240300Z 16014KT 9999 -RA FEW020 SCT045 BKN060 18/14 Q1007
RJOR 240200Z 16015KT 9999 -RA FEW030 SCT060 OVC080 18/14 Q1008
RJOR 240100Z 15012KT 9000 -RA FEW020 SCT050 OVC070 18/14 Q1008
RJOR 240000Z 16010KT 120V180 7000 -RA FEW020 SCT050 OVC070 18/14 Q1009
RJOR 232300Z 15014KT 7000 -RA FEW020 SCT035 BKN060 17/14 Q1009
RJOR 232210Z 15010KT 6000 RA FEW010 SCT030 BKN060 17/14 Q1010 RMK 1ST010 3SC030 5SC060 A2984
RJOR 232200Z 14011KT 7000 -RA FEW010 SCT035 OVC070 17/14 Q1010
RJOR 232130Z 15012KT 6000 RA FEW035 SCT060 OVC070 17/14 Q1010
RJOR 232110Z 15010KT 8000 -RA FEW035 SCT060 OVC070 17/14 Q1010 RMK 1CU035 4SC060 8AS070 A2984
RJOR 231200Z VRB02KT 6000 -RA FEW020 SCT070 BKN100 16/13 Q1016
RJOR 231100Z 22001KT 7000 -RA FEW020 SCT070 BKN100 16/13 Q1016
RJOR 231000Z 22004KT 7000 FEW020 SCT080 BKN100 16/13 Q1015
RJOR 230900Z 26003KT 7000 FEW020 SCT080 BKN120 16/13 Q1015
RJOR 230800Z 03008KT 7000 FEW020 SCT100 BKN150 16/13 Q1015
RJOR 230700Z 04010KT 7000 FEW020 SCT100 BKN150 16/13 Q1015
RJOR 230600Z 04010KT 7000 FEW020 SCT060 BKN150 16/12 Q1015
RJOR 230500Z 04011KT 7000 FEW020 SCT150 BKN/// 16/12 Q1016
RJOR 230400Z 03012KT 6000 FEW010 SCT015 BKN/// 17/12 Q1017
RJOR 230300Z 04012KT 6000 FEW008 SCT010 BKN020 17/13 Q1017
RJOR 230200Z 04014KT 6000 FEW008 SCT010 BKN020 16/13 Q1018
RJOR 230100Z 03010KT 7000 FEW005 SCT008 BKN015 16/14 Q1018
RJOR 230045Z 04009KT 5000 BR FEW005 SCT008 BKN012 16/14 Q1018 RMK 1ST005 3ST008 6CU012 A3008
RJOR 230040Z 04010KT 4000 BR FEW003 SCT005 BKN010 15/14 Q1018 RMK 1ST003 3ST005 6ST010 A3008
RJOR 230034Z 03012KT 3000 -DZ BR FEW003 SCT005 BKN010 15/13 Q1018 RMK 1ST003 3ST005 6ST010 A3008
RJOR 230014Z 03012KT 2000 -DZ BR FEW003 SCT005 BKN010 15/13 Q1018 RMK 1ST003 3ST005 6ST010 A3009
RJOR 230000Z 03011KT 1500 R10/P1800N -DZ BR FEW003 SCT005 BKN010 15/13 Q1019
RJOR 222308Z 04007KT 1500 R10/1600VP1800N -DZ BR FEW003 SCT005 BKN010 15/13 Q1019 RMK 1ST003 3ST005 6ST010 A3010
RJOR 222300Z 07005KT 020V110 2000 -DZ BR FEW003 SCT005 BKN010 15/13 Q1019
RJOR 222210Z 13004KT 4000 -DZ BR FEW003 SCT005 BKN010 15/12 Q1019 RMK 1ST003 3ST005 6ST010 A3010
RJOR 222200Z 11005KT 3000 -DZ BR FEW003 SCT005 BKN010 14/12 Q1019
RJOR 222130Z 12005KT 3000 BR FEW003 SCT005 BKN010 14/12 Q1019
RJOR 222110Z 14003KT 4000 BR FEW003 SCT005 BKN010 15/12 Q1019 RMK 1ST003 3ST005 6ST010 A3010
RJOR 221200Z 02005KT 9999 FEW020 BKN/// 17/14 Q1019
RJOR 221100Z 18002KT 9999 FEW020 BKN/// 17/14 Q1018
RJOR 221000Z 33003KT 9999 FEW020 BKN/// 17/14 Q1018
RJOR 220900Z 29006KT 9999 FEW045 BKN/// 18/14 Q1018
RJOR 220800Z 29004KT 9999 FEW045 BKN/// 19/14 Q1018
RJOR 220700Z 29006KT 9999 FEW045 BKN/// 19/14 Q1018
RJOR 220600Z 29006KT 9999 FEW045 SCT/// 21/14 Q1018
RJOR 220500Z 29006KT CAVOK 22/15 Q1019